sensor_id;sensor_type;location;lat;lon;timestamp;P1;durP1;ratioP1;P2;durP2;ratioP2
64986;SDS011;51532;52.108;9.360;2022-09-21T00:02:19;8.52;;;7.70;;
64986;SDS011;51532;52.108;9.360;2022-09-21T00:05:07;8.45;;;6.80;;
64986;SDS011;51532;52.108;9.360;2022-09-21T00:07:55;10.05;;;7.45;;
64986;SDS011;51532;52.108;9.360;2022-09-21T00:10:48;10.30;;;7.15;;
64986;SDS011;51532;52.108;9.360;2022-09-21T00:13:35;11.27;;;7.97;;
64986;SDS011;51532;52.108;9.360;2022-09-21T00:16:23;9.02;;;7.55;;
64986;SDS011;51532;52.108;9.360;2022-09-21T00:19:11;10.43;;;7.30;;
64986;SDS011;51532;52.108;9.360;2022-09-21T00:21:58;8.88;;;6.60;;
64986;SDS011;51532;52.108;9.360;2022-09-21T00:24:45;9.18;;;7.03;;
64986;SDS011;51532;52.108;9.360;2022-09-21T00:27:33;8.77;;;7.57;;
64986;SDS011;51532;52.108;9.360;2022-09-21T00:30:21;10.35;;;8.13;;
64986;SDS011;51532;52.108;9.360;2022-09-21T00:33:08;10.25;;;8.95;;
64986;SDS011;51532;52.108;9.360;2022-09-21T00:36:00;19.95;;;9.82;;
64986;SDS011;51532;52.108;9.360;2022-09-21T00:38:52;12.23;;;9.00;;
64986;SDS011;51532;52.108;9.360;2022-09-21T00:41:41;10.80;;;8.50;;
64986;SDS011;51532;52.108;9.360;2022-09-21T00:44:30;9.65;;;7.47;;
64986;SDS011;51532;52.108;9.360;2022-09-21T00:47:27;8.30;;;6.18;;
64986;SDS011;51532;52.108;9.360;2022-09-21T00:50:18;6.60;;;5.75;;
64986;SDS011;51532;52.108;9.360;2022-09-21T00:53:08;10.30;;;6.68;;
64986;SDS011;51532;52.108;9.360;2022-09-21T00:55:57;7.85;;;6.65;;
64986;SDS011;51532;52.108;9.360;2022-09-21T00:58:47;13.43;;;7.65;;
64986;SDS011;51532;52.108;9.360;2022-09-21T01:01:36;8.43;;;7.53;;
64986;SDS011;51532;52.108;9.360;2022-09-21T01:04:24;11.07;;;7.82;;
64986;SDS011;51532;52.108;9.360;2022-09-21T01:07:15;10.40;;;7.10;;
64986;SDS011;51532;52.108;9.360;2022-09-21T01:10:06;14.32;;;7.10;;
64986;SDS011;51532;52.108;9.360;2022-09-21T01:16:22;8.55;;;6.93;;
64986;SDS011;51532;52.108;9.360;2022-09-21T01:19:26;12.15;;;7.32;;
64986;SDS011;51532;52.108;9.360;2022-09-21T01:25:33;9.75;;;6.82;;
64986;SDS011;51532;52.108;9.360;2022-09-21T01:31:54;17.80;;;7.85;;
64986;SDS011;51532;52.108;9.360;2022-09-21T01:34:52;13.52;;;7.18;;
64986;SDS011;51532;52.108;9.360;2022-09-21T01:37:58;28.75;;;6.97;;
64986;SDS011;51532;52.108;9.360;2022-09-21T01:40:51;15.55;;;7.30;;
64986;SDS011;51532;52.108;9.360;2022-09-21T01:43:48;15.90;;;7.35;;
64986;SDS011;51532;52.108;9.360;2022-09-21T01:46:41;11.55;;;6.57;;
64986;SDS011;51532;52.108;9.360;2022-09-21T01:49:34;10.52;;;6.28;;
64986;SDS011;51532;52.108;9.360;2022-09-21T01:52:27;16.25;;;7.60;;
64986;SDS011;51532;52.108;9.360;2022-09-21T01:55:42;18.38;;;7.40;;
64986;SDS011;51532;52.108;9.360;2022-09-21T01:58:38;17.00;;;6.60;;
64986;SDS011;51532;52.108;9.360;2022-09-21T02:01:38;17.77;;;7.43;;
64986;SDS011;51532;52.108;9.360;2022-09-21T02:04:31;22.38;;;7.82;;
64986;SDS011;51532;52.108;9.360;2022-09-21T02:07:20;14.07;;;7.10;;
64986;SDS011;51532;52.108;9.360;2022-09-21T02:10:08;13.48;;;6.72;;
64986;SDS011;51532;52.108;9.360;2022-09-21T02:13:02;19.77;;;6.68;;
64986;SDS011;51532;52.108;9.360;2022-09-21T02:16:02;64.90;;;8.48;;
64986;SDS011;51532;52.108;9.360;2022-09-21T02:18:59;25.88;;;7.40;;
64986;SDS011;51532;52.108;9.360;2022-09-21T02:22:01;32.90;;;7.28;;
64986;SDS011;51532;52.108;9.360;2022-09-21T02:25:12;19.05;;;6.97;;
64986;SDS011;51532;52.108;9.360;2022-09-21T02:28:07;13.18;;;6.13;;
64986;SDS011;51532;52.108;9.360;2022-09-21T02:31:11;38.55;;;6.93;;
64986;SDS011;51532;52.108;9.360;2022-09-21T02:34:23;18.70;;;6.95;;
64986;SDS011;51532;52.108;9.360;2022-09-21T02:37:47;21.65;;;6.80;;
64986;SDS011;51532;52.108;9.360;2022-09-21T02:40:44;23.00;;;6.97;;
64986;SDS011;51532;52.108;9.360;2022-09-21T02:44:29;104.32;;;9.55;;
64986;SDS011;51532;52.108;9.360;2022-09-21T02:46:52;12.50;;;6.63;;
64986;SDS011;51532;52.108;9.360;2022-09-21T02:49:54;31.42;;;7.25;;
64986;SDS011;51532;52.108;9.360;2022-09-21T02:52:49;11.57;;;6.47;;
64986;SDS011;51532;52.108;9.360;2022-09-21T02:55:39;20.45;;;6.70;;
64986;SDS011;51532;52.108;9.360;2022-09-21T02:58:27;12.52;;;6.50;;
64986;SDS011;51532;52.108;9.360;2022-09-21T03:01:16;26.75;;;6.45;;
64986;SDS011;51532;52.108;9.360;2022-09-21T03:04:05;28.35;;;6.20;;
64986;SDS011;51532;52.108;9.360;2022-09-21T03:06:52;16.75;;;6.18;;
64986;SDS011;51532;52.108;9.360;2022-09-21T03:09:39;28.45;;;6.57;;
64986;SDS011;51532;52.108;9.360;2022-09-21T03:12:27;18.30;;;7.40;;
64986;SDS011;51532;52.108;9.360;2022-09-21T03:15:15;11.90;;;6.50;;
64986;SDS011;51532;52.108;9.360;2022-09-21T03:18:03;13.63;;;6.95;;
64986;SDS011;51532;52.108;9.360;2022-09-21T03:20:52;27.15;;;6.75;;
64986;SDS011;51532;52.108;9.360;2022-09-21T03:23:39;20.38;;;7.07;;
64986;SDS011;51532;52.108;9.360;2022-09-21T03:26:27;13.90;;;7.20;;
64986;SDS011;51532;52.108;9.360;2022-09-21T03:29:15;15.73;;;6.70;;
64986;SDS011;51532;52.108;9.360;2022-09-21T03:32:03;23.48;;;7.30;;
64986;SDS011;51532;52.108;9.360;2022-09-21T03:34:50;10.88;;;6.47;;
64986;SDS011;51532;52.108;9.360;2022-09-21T03:37:38;25.50;;;6.88;;
64986;SDS011;51532;52.108;9.360;2022-09-21T03:40:27;8.63;;;5.97;;
64986;SDS011;51532;52.108;9.360;2022-09-21T03:43:14;10.68;;;5.78;;
64986;SDS011;51532;52.108;9.360;2022-09-21T03:46:02;20.65;;;5.55;;
64986;SDS011;51532;52.108;9.360;2022-09-21T03:48:49;14.38;;;5.20;;
64986;SDS011;51532;52.108;9.360;2022-09-21T03:51:37;7.97;;;5.15;;
64986;SDS011;51532;52.108;9.360;2022-09-21T03:54:26;9.55;;;5.60;;
64986;SDS011;51532;52.108;9.360;2022-09-21T03:57:13;15.50;;;6.00;;
64986;SDS011;51532;52.108;9.360;2022-09-21T04:00:01;24.73;;;6.53;;
64986;SDS011;51532;52.108;9.360;2022-09-21T04:02:50;10.35;;;5.85;;
64986;SDS011;51532;52.108;9.360;2022-09-21T04:05:37;24.65;;;5.57;;
64986;SDS011;51532;52.108;9.360;2022-09-21T04:08:25;7.55;;;5.60;;
64986;SDS011;51532;52.108;9.360;2022-09-21T04:11:13;26.77;;;5.63;;
64986;SDS011;51532;52.108;9.360;2022-09-21T04:14:01;11.13;;;5.20;;
64986;SDS011;51532;52.108;9.360;2022-09-21T04:16:51;11.05;;;5.05;;
64986;SDS011;51532;52.108;9.360;2022-09-21T04:19:38;16.50;;;5.43;;
64986;SDS011;51532;52.108;9.360;2022-09-21T04:22:25;6.82;;;5.05;;
64986;SDS011;51532;52.108;9.360;2022-09-21T04:25:13;4.78;;;4.15;;
64986;SDS011;51532;52.108;9.360;2022-09-21T04:28:01;6.97;;;4.78;;
64986;SDS011;51532;52.108;9.360;2022-09-21T04:30:52;9.65;;;5.00;;
64986;SDS011;51532;52.108;9.360;2022-09-21T04:33:39;9.18;;;5.38;;
64986;SDS011;51532;52.108;9.360;2022-09-21T04:36:27;11.23;;;5.13;;
64986;SDS011;51532;52.108;9.360;2022-09-21T04:39:21;10.43;;;4.18;;
64986;SDS011;51532;52.108;9.360;2022-09-21T04:42:09;11.48;;;4.70;;
64986;SDS011;51532;52.108;9.360;2022-09-21T04:44:56;9.98;;;4.35;;
64986;SDS011;51532;52.108;9.360;2022-09-21T04:47:44;13.45;;;5.22;;
64986;SDS011;51532;52.108;9.360;2022-09-21T04:50:31;11.93;;;4.28;;
64986;SDS011;51532;52.108;9.360;2022-09-21T04:53:21;12.88;;;5.13;;
64986;SDS011;51532;52.108;9.360;2022-09-21T04:56:09;21.08;;;5.03;;
64986;SDS011;51532;52.108;9.360;2022-09-21T04:58:59;28.45;;;5.03;;
64986;SDS011;51532;52.108;9.360;2022-09-21T05:01:46;10.43;;;4.53;;
64986;SDS011;51532;52.108;9.360;2022-09-21T05:04:34;17.88;;;5.00;;
64986;SDS011;51532;52.108;9.360;2022-09-21T05:07:21;10.13;;;5.00;;
64986;SDS011;51532;52.108;9.360;2022-09-21T05:10:09;18.15;;;5.10;;
64986;SDS011;51532;52.108;9.360;2022-09-21T05:12:57;13.38;;;5.07;;
64986;SDS011;51532;52.108;9.360;2022-09-21T05:15:44;24.80;;;5.28;;
64986;SDS011;51532;52.108;9.360;2022-09-21T05:18:31;8.20;;;4.85;;
64986;SDS011;51532;52.108;9.360;2022-09-21T05:21:19;13.70;;;5.07;;
64986;SDS011;51532;52.108;9.360;2022-09-21T05:24:07;6.50;;;4.50;;
64986;SDS011;51532;52.108;9.360;2022-09-21T05:26:54;7.13;;;4.70;;
64986;SDS011;51532;52.108;9.360;2022-09-21T05:29:42;5.15;;;4.53;;
64986;SDS011;51532;52.108;9.360;2022-09-21T05:32:36;15.77;;;10.95;;
64986;SDS011;51532;52.108;9.360;2022-09-21T05:35:59;5.28;;;4.35;;
64986;SDS011;51532;52.108;9.360;2022-09-21T05:39:07;6.45;;;4.22;;
64986;SDS011;51532;52.108;9.360;2022-09-21T05:41:54;12.80;;;7.18;;
64986;SDS011;51532;52.108;9.360;2022-09-21T05:44:42;8.48;;;5.55;;
64986;SDS011;51532;52.108;9.360;2022-09-21T05:47:37;11.00;;;4.35;;
64986;SDS011;51532;52.108;9.360;2022-09-21T05:50:37;6.65;;;5.07;;
64986;SDS011;51532;52.108;9.360;2022-09-21T05:53:45;17.17;;;10.98;;
64986;SDS011;51532;52.108;9.360;2022-09-21T05:59:30;8.60;;;5.13;;
64986;SDS011;51532;52.108;9.360;2022-09-21T06:02:54;7.32;;;5.85;;
64986;SDS011;51532;52.108;9.360;2022-09-21T06:05:58;8.90;;;6.07;;
64986;SDS011;51532;52.108;9.360;2022-09-21T06:08:46;9.13;;;4.85;;
64986;SDS011;51532;52.108;9.360;2022-09-21T06:11:33;8.15;;;5.65;;
64986;SDS011;51532;52.108;9.360;2022-09-21T06:14:21;14.20;;;6.72;;
64986;SDS011;51532;52.108;9.360;2022-09-21T06:17:11;13.55;;;8.05;;
64986;SDS011;51532;52.108;9.360;2022-09-21T06:19:58;6.50;;;5.80;;
64986;SDS011;51532;52.108;9.360;2022-09-21T06:22:47;7.95;;;5.25;;
64986;SDS011;51532;52.108;9.360;2022-09-21T06:25:34;7.05;;;5.30;;
64986;SDS011;51532;52.108;9.360;2022-09-21T06:28:22;16.70;;;6.10;;
64986;SDS011;51532;52.108;9.360;2022-09-21T06:31:09;38.45;;;28.27;;
64986;SDS011;51532;52.108;9.360;2022-09-21T06:33:57;8.55;;;6.93;;
64986;SDS011;51532;52.108;9.360;2022-09-21T06:36:44;10.10;;;7.80;;
64986;SDS011;51532;52.108;9.360;2022-09-21T06:39:31;12.57;;;7.95;;
64986;SDS011;51532;52.108;9.360;2022-09-21T06:42:19;29.42;;;8.43;;
64986;SDS011;51532;52.108;9.360;2022-09-21T06:45:06;18.00;;;6.13;;
64986;SDS011;51532;52.108;9.360;2022-09-21T06:47:54;19.77;;;10.77;;
64986;SDS011;51532;52.108;9.360;2022-09-21T06:50:41;17.05;;;10.90;;
64986;SDS011;51532;52.108;9.360;2022-09-21T06:53:28;17.92;;;13.35;;
64986;SDS011;51532;52.108;9.360;2022-09-21T06:56:16;23.92;;;7.20;;
64986;SDS011;51532;52.108;9.360;2022-09-21T06:59:04;11.45;;;8.27;;
64986;SDS011;51532;52.108;9.360;2022-09-21T07:01:51;11.20;;;6.55;;
64986;SDS011;51532;52.108;9.360;2022-09-21T07:04:41;10.18;;;4.00;;
64986;SDS011;51532;52.108;9.360;2022-09-21T07:07:29;10.65;;;5.57;;
64986;SDS011;51532;52.108;9.360;2022-09-21T07:10:17;7.35;;;4.18;;
64986;SDS011;51532;52.108;9.360;2022-09-21T07:13:06;8.75;;;5.32;;
64986;SDS011;51532;52.108;9.360;2022-09-21T07:15:55;12.20;;;5.47;;
64986;SDS011;51532;52.108;9.360;2022-09-21T07:18:43;10.98;;;6.28;;
64986;SDS011;51532;52.108;9.360;2022-09-21T07:21:30;9.00;;;6.18;;
64986;SDS011;51532;52.108;9.360;2022-09-21T07:24:17;14.90;;;10.40;;
64986;SDS011;51532;52.108;9.360;2022-09-21T07:27:05;7.82;;;4.93;;
64986;SDS011;51532;52.108;9.360;2022-09-21T07:29:52;10.70;;;4.75;;
64986;SDS011;51532;52.108;9.360;2022-09-21T07:32:40;5.70;;;3.72;;
64986;SDS011;51532;52.108;9.360;2022-09-21T07:35:27;4.22;;;3.67;;
64986;SDS011;51532;52.108;9.360;2022-09-21T07:38:15;8.10;;;4.97;;
64986;SDS011;51532;52.108;9.360;2022-09-21T07:41:02;5.97;;;3.80;;
64986;SDS011;51532;52.108;9.360;2022-09-21T07:43:50;5.00;;;3.67;;
64986;SDS011;51532;52.108;9.360;2022-09-21T07:46:38;6.45;;;3.42;;
64986;SDS011;51532;52.108;9.360;2022-09-21T07:49:33;6.05;;;4.10;;
64986;SDS011;51532;52.108;9.360;2022-09-21T07:52:21;5.32;;;4.40;;
64986;SDS011;51532;52.108;9.360;2022-09-21T07:55:08;5.00;;;4.25;;
64986;SDS011;51532;52.108;9.360;2022-09-21T07:57:56;5.22;;;4.22;;
64986;SDS011;51532;52.108;9.360;2022-09-21T08:01:05;7.82;;;4.22;;
64986;SDS011;51532;52.108;9.360;2022-09-21T08:03:53;6.35;;;4.90;;
64986;SDS011;51532;52.108;9.360;2022-09-21T08:06:42;5.53;;;4.88;;
64986;SDS011;51532;52.108;9.360;2022-09-21T08:09:29;5.20;;;4.78;;
64986;SDS011;51532;52.108;9.360;2022-09-21T08:12:17;6.30;;;5.68;;
64986;SDS011;51532;52.108;9.360;2022-09-21T08:15:05;7.82;;;6.47;;
64986;SDS011;51532;52.108;9.360;2022-09-21T08:18:06;7.15;;;6.45;;
64986;SDS011;51532;52.108;9.360;2022-09-21T08:20:57;10.40;;;7.47;;
64986;SDS011;51532;52.108;9.360;2022-09-21T08:23:46;9.15;;;7.85;;
64986;SDS011;51532;52.108;9.360;2022-09-21T08:26:34;8.25;;;7.45;;
64986;SDS011;51532;52.108;9.360;2022-09-21T08:29:22;11.23;;;10.07;;
64986;SDS011;51532;52.108;9.360;2022-09-21T08:32:10;12.30;;;10.60;;
64986;SDS011;51532;52.108;9.360;2022-09-21T08:35:17;8.65;;;7.75;;
64986;SDS011;51532;52.108;9.360;2022-09-21T08:38:05;14.00;;;10.63;;
64986;SDS011;51532;52.108;9.360;2022-09-21T08:40:52;10.93;;;8.30;;
64986;SDS011;51532;52.108;9.360;2022-09-21T08:43:43;13.75;;;11.82;;
64986;SDS011;51532;52.108;9.360;2022-09-21T08:46:47;13.10;;;10.38;;
64986;SDS011;51532;52.108;9.360;2022-09-21T08:49:40;25.25;;;20.58;;
64986;SDS011;51532;52.108;9.360;2022-09-21T08:52:31;12.27;;;9.25;;
64986;SDS011;51532;52.108;9.360;2022-09-21T08:55:19;12.48;;;10.82;;
64986;SDS011;51532;52.108;9.360;2022-09-21T08:58:14;10.55;;;9.20;;
64986;SDS011;51532;52.108;9.360;2022-09-21T09:04:56;19.48;;;14.55;;
64986;SDS011;51532;52.108;9.360;2022-09-21T09:14:15;10.30;;;9.15;;
64986;SDS011;51532;52.108;9.360;2022-09-21T09:17:23;11.13;;;9.98;;
64986;SDS011;51532;52.108;9.360;2022-09-21T09:20:32;12.40;;;10.43;;
64986;SDS011;51532;52.108;9.360;2022-09-21T09:23:33;11.70;;;10.00;;
64986;SDS011;51532;52.108;9.360;2022-09-21T09:26:29;14.60;;;11.63;;
64986;SDS011;51532;52.108;9.360;2022-09-21T09:29:28;12.95;;;11.40;;
64986;SDS011;51532;52.108;9.360;2022-09-21T09:32:39;12.98;;;11.68;;
64986;SDS011;51532;52.108;9.360;2022-09-21T09:50:57;16.75;;;13.15;;
64986;SDS011;51532;52.108;9.360;2022-09-21T09:53:45;19.65;;;14.95;;
64986;SDS011;51532;52.108;9.360;2022-09-21T09:56:32;16.13;;;13.40;;
64986;SDS011;51532;52.108;9.360;2022-09-21T09:59:25;16.58;;;13.57;;
64986;SDS011;51532;52.108;9.360;2022-09-21T10:02:25;16.95;;;12.85;;
64986;SDS011;51532;52.108;9.360;2022-09-21T10:05:18;14.88;;;12.35;;
64986;SDS011;51532;52.108;9.360;2022-09-21T10:08:27;14.90;;;12.55;;
64986;SDS011;51532;52.108;9.360;2022-09-21T10:11:14;14.13;;;12.13;;
64986;SDS011;51532;52.108;9.360;2022-09-21T10:14:08;13.88;;;10.93;;
64986;SDS011;51532;52.108;9.360;2022-09-21T10:17:02;16.08;;;11.50;;
64986;SDS011;51532;52.108;9.360;2022-09-21T10:20:02;16.73;;;9.95;;
64986;SDS011;51532;52.108;9.360;2022-09-21T10:22:54;14.52;;;9.85;;
64986;SDS011;51532;52.108;9.360;2022-09-21T10:25:42;14.98;;;9.60;;
64986;SDS011;51532;52.108;9.360;2022-09-21T10:28:29;12.38;;;9.65;;
64986;SDS011;51532;52.108;9.360;2022-09-21T10:31:18;13.00;;;9.43;;
64986;SDS011;51532;52.108;9.360;2022-09-21T10:34:13;14.52;;;8.65;;
64986;SDS011;51532;52.108;9.360;2022-09-21T10:37:01;8.90;;;6.25;;
64986;SDS011;51532;52.108;9.360;2022-09-21T10:43:05;6.18;;;3.47;;
64986;SDS011;51532;52.108;9.360;2022-09-21T10:45:53;7.32;;;3.92;;
64986;SDS011;51532;52.108;9.360;2022-09-21T10:48:43;7.97;;;4.22;;
64986;SDS011;51532;52.108;9.360;2022-09-21T10:51:31;7.60;;;3.75;;
64986;SDS011;51532;52.108;9.360;2022-09-21T10:54:21;5.35;;;3.67;;
64986;SDS011;51532;52.108;9.360;2022-09-21T10:57:15;5.18;;;3.00;;
64986;SDS011;51532;52.108;9.360;2022-09-21T11:00:16;5.78;;;2.85;;
64986;SDS011;51532;52.108;9.360;2022-09-21T11:06:35;7.25;;;4.15;;
64986;SDS011;51532;52.108;9.360;2022-09-21T11:09:40;6.25;;;2.83;;
64986;SDS011;51532;52.108;9.360;2022-09-21T11:12:38;4.50;;;1.60;;
64986;SDS011;51532;52.108;9.360;2022-09-21T11:15:33;13.48;;;4.13;;
64986;SDS011;51532;52.108;9.360;2022-09-21T11:21:59;9.02;;;4.47;;
64986;SDS011;51532;52.108;9.360;2022-09-21T11:24:59;5.53;;;1.67;;
64986;SDS011;51532;52.108;9.360;2022-09-21T11:34:45;4.18;;;1.90;;
64986;SDS011;51532;52.108;9.360;2022-09-21T11:37:30;2.22;;;1.50;;
64986;SDS011;51532;52.108;9.360;2022-09-21T11:47:45;3.58;;;1.60;;
64986;SDS011;51532;52.108;9.360;2022-09-21T12:12:16;20.92;;;12.30;;
64986;SDS011;51532;52.108;9.360;2022-09-21T12:15:15;3.70;;;1.75;;
64986;SDS011;51532;52.108;9.360;2022-09-21T12:18:14;4.35;;;1.60;;
64986;SDS011;51532;52.108;9.360;2022-09-21T12:21:17;13.05;;;5.45;;
64986;SDS011;51532;52.108;9.360;2022-09-21T12:24:31;4.38;;;1.40;;
64986;SDS011;51532;52.108;9.360;2022-09-21T12:27:28;5.38;;;2.30;;
64986;SDS011;51532;52.108;9.360;2022-09-21T12:30:20;1.77;;;1.13;;
64986;SDS011;51532;52.108;9.360;2022-09-21T12:33:12;2.47;;;1.25;;
64986;SDS011;51532;52.108;9.360;2022-09-21T12:36:24;2.15;;;1.20;;
64986;SDS011;51532;52.108;9.360;2022-09-21T12:39:19;4.70;;;1.58;;
64986;SDS011;51532;52.108;9.360;2022-09-21T12:45:11;2.47;;;1.52;;
64986;SDS011;51532;52.108;9.360;2022-09-21T12:48:34;4.75;;;1.38;;
64986;SDS011;51532;52.108;9.360;2022-09-21T12:51:30;3.92;;;1.58;;
64986;SDS011;51532;52.108;9.360;2022-09-21T12:54:26;3.30;;;2.13;;
64986;SDS011;51532;52.108;9.360;2022-09-21T12:57:43;3.78;;;1.05;;
64986;SDS011;51532;52.108;9.360;2022-09-21T13:03:59;2.05;;;1.05;;
64986;SDS011;51532;52.108;9.360;2022-09-21T13:07:03;4.32;;;1.70;;
64986;SDS011;51532;52.108;9.360;2022-09-21T13:10:13;2.13;;;1.20;;
64986;SDS011;51532;52.108;9.360;2022-09-21T13:13:26;2.75;;;1.17;;
64986;SDS011;51532;52.108;9.360;2022-09-21T13:16:23;2.38;;;1.00;;
64986;SDS011;51532;52.108;9.360;2022-09-21T13:19:19;3.78;;;1.40;;
64986;SDS011;51532;52.108;9.360;2022-09-21T13:22:09;5.13;;;1.20;;
64986;SDS011;51532;52.108;9.360;2022-09-21T13:28:02;2.55;;;1.10;;
64986;SDS011;51532;52.108;9.360;2022-09-21T13:42:51;2.83;;;1.00;;
64986;SDS011;51532;52.108;9.360;2022-09-21T13:48:26;3.67;;;1.52;;
64986;SDS011;51532;52.108;9.360;2022-09-21T13:51:15;2.22;;;1.02;;
64986;SDS011;51532;52.108;9.360;2022-09-21T13:54:03;4.10;;;1.30;;
64986;SDS011;51532;52.108;9.360;2022-09-21T14:02:59;2.45;;;1.30;;
64986;SDS011;51532;52.108;9.360;2022-09-21T14:06:15;3.40;;;1.50;;
64986;SDS011;51532;52.108;9.360;2022-09-21T14:12:38;4.07;;;1.60;;
64986;SDS011;51532;52.108;9.360;2022-09-21T14:15:31;3.15;;;1.40;;
64986;SDS011;51532;52.108;9.360;2022-09-21T14:18:35;2.83;;;1.27;;
64986;SDS011;51532;52.108;9.360;2022-09-21T14:21:23;3.35;;;1.50;;
64986;SDS011;51532;52.108;9.360;2022-09-21T14:24:18;2.63;;;1.33;;
64986;SDS011;51532;52.108;9.360;2022-09-21T14:27:14;3.95;;;1.40;;
64986;SDS011;51532;52.108;9.360;2022-09-21T14:33:17;3.20;;;1.30;;
64986;SDS011;51532;52.108;9.360;2022-09-21T14:36:17;5.18;;;1.83;;
64986;SDS011;51532;52.108;9.360;2022-09-21T14:39:24;3.20;;;1.77;;
64986;SDS011;51532;52.108;9.360;2022-09-21T14:42:18;2.88;;;1.58;;
64986;SDS011;51532;52.108;9.360;2022-09-21T14:45:13;2.65;;;1.40;;
64986;SDS011;51532;52.108;9.360;2022-09-21T14:51:41;2.05;;;1.20;;
64986;SDS011;51532;52.108;9.360;2022-09-21T14:55:25;2.38;;;1.38;;
64986;SDS011;51532;52.108;9.360;2022-09-21T15:01:33;4.43;;;1.40;;
64986;SDS011;51532;52.108;9.360;2022-09-21T15:04:24;7.93;;;4.05;;
64986;SDS011;51532;52.108;9.360;2022-09-21T15:17:29;3.97;;;1.83;;
64986;SDS011;51532;52.108;9.360;2022-09-21T15:20:18;3.60;;;1.70;;
64986;SDS011;51532;52.108;9.360;2022-09-21T15:23:15;4.05;;;2.10;;
64986;SDS011;51532;52.108;9.360;2022-09-21T15:26:08;3.17;;;2.10;;
64986;SDS011;51532;52.108;9.360;2022-09-21T15:29:00;3.80;;;2.35;;
64986;SDS011;51532;52.108;9.360;2022-09-21T15:31:56;2.63;;;2.10;;
64986;SDS011;51532;52.108;9.360;2022-09-21T15:34:45;4.72;;;1.92;;
64986;SDS011;51532;52.108;9.360;2022-09-21T15:37:35;3.10;;;1.42;;
64986;SDS011;51532;52.108;9.360;2022-09-21T15:40:25;2.92;;;1.30;;
64986;SDS011;51532;52.108;9.360;2022-09-21T15:46:05;2.03;;;1.00;;
64986;SDS011;51532;52.108;9.360;2022-09-21T15:48:57;2.65;;;1.40;;
64986;SDS011;51532;52.108;9.360;2022-09-21T15:52:35;1.90;;;1.13;;
64986;SDS011;51532;52.108;9.360;2022-09-21T15:54:57;2.70;;;1.40;;
64986;SDS011;51532;52.108;9.360;2022-09-21T15:57:46;2.88;;;1.15;;
64986;SDS011;51532;52.108;9.360;2022-09-21T16:00:35;2.95;;;1.35;;
64986;SDS011;51532;52.108;9.360;2022-09-21T16:03:25;2.70;;;1.85;;
64986;SDS011;51532;52.108;9.360;2022-09-21T16:09:28;3.15;;;1.92;;
64986;SDS011;51532;52.108;9.360;2022-09-21T16:12:41;4.13;;;2.13;;
64986;SDS011;51532;52.108;9.360;2022-09-21T16:15:31;3.00;;;1.65;;
64986;SDS011;51532;52.108;9.360;2022-09-21T16:18:29;4.18;;;1.40;;
64986;SDS011;51532;52.108;9.360;2022-09-21T16:21:37;2.10;;;1.20;;
64986;SDS011;51532;52.108;9.360;2022-09-21T16:24:24;2.97;;;1.75;;
64986;SDS011;51532;52.108;9.360;2022-09-21T16:27:17;1.10;;;1.00;;
64986;SDS011;51532;52.108;9.360;2022-09-21T16:30:15;4.70;;;2.00;;
64986;SDS011;51532;52.108;9.360;2022-09-21T16:39:20;4.30;;;1.85;;
64986;SDS011;51532;52.108;9.360;2022-09-21T16:42:08;3.70;;;2.03;;
64986;SDS011;51532;52.108;9.360;2022-09-21T16:44:56;3.85;;;2.40;;
64986;SDS011;51532;52.108;9.360;2022-09-21T16:47:44;4.63;;;2.40;;
64986;SDS011;51532;52.108;9.360;2022-09-21T16:50:32;3.08;;;1.83;;
64986;SDS011;51532;52.108;9.360;2022-09-21T16:53:19;4.25;;;2.00;;
64986;SDS011;51532;52.108;9.360;2022-09-21T16:56:12;5.38;;;2.15;;
64986;SDS011;51532;52.108;9.360;2022-09-21T16:59:04;3.38;;;2.15;;
64986;SDS011;51532;52.108;9.360;2022-09-21T17:01:58;6.38;;;2.47;;
64986;SDS011;51532;52.108;9.360;2022-09-21T17:04:46;2.75;;;2.03;;
64986;SDS011;51532;52.108;9.360;2022-09-21T17:07:33;16.10;;;12.65;;
64986;SDS011;51532;52.108;9.360;2022-09-21T17:10:27;7.57;;;3.80;;
64986;SDS011;51532;52.108;9.360;2022-09-21T17:13:22;4.15;;;2.30;;
64986;SDS011;51532;52.108;9.360;2022-09-21T17:16:10;3.67;;;2.50;;
64986;SDS011;51532;52.108;9.360;2022-09-21T17:18:57;6.13;;;3.20;;
64986;SDS011;51532;52.108;9.360;2022-09-21T17:21:45;5.03;;;3.38;;
64986;SDS011;51532;52.108;9.360;2022-09-21T17:24:33;3.08;;;2.30;;
64986;SDS011;51532;52.108;9.360;2022-09-21T17:27:36;2.70;;;2.00;;
64986;SDS011;51532;52.108;9.360;2022-09-21T17:30:24;4.00;;;2.10;;
64986;SDS011;51532;52.108;9.360;2022-09-21T17:33:12;5.85;;;2.50;;
64986;SDS011;51532;52.108;9.360;2022-09-21T17:36:00;4.00;;;2.60;;
64986;SDS011;51532;52.108;9.360;2022-09-21T17:38:52;5.82;;;2.92;;
64986;SDS011;51532;52.108;9.360;2022-09-21T17:41:44;5.40;;;3.40;;
64986;SDS011;51532;52.108;9.360;2022-09-21T17:47:40;4.85;;;2.60;;
64986;SDS011;51532;52.108;9.360;2022-09-21T17:50:28;4.07;;;2.50;;
64986;SDS011;51532;52.108;9.360;2022-09-21T17:53:15;6.43;;;3.10;;
64986;SDS011;51532;52.108;9.360;2022-09-21T17:56:27;6.47;;;3.13;;
64986;SDS011;51532;52.108;9.360;2022-09-21T18:02:21;5.07;;;3.38;;
64986;SDS011;51532;52.108;9.360;2022-09-21T18:08:16;7.78;;;4.30;;
64986;SDS011;51532;52.108;9.360;2022-09-21T18:11:15;5.88;;;3.78;;
64986;SDS011;51532;52.108;9.360;2022-09-21T18:20:12;10.32;;;5.25;;
64986;SDS011;51532;52.108;9.360;2022-09-21T18:25:52;8.50;;;5.32;;
64986;SDS011;51532;52.108;9.360;2022-09-21T18:28:44;9.20;;;5.78;;
64986;SDS011;51532;52.108;9.360;2022-09-21T18:34:45;6.25;;;4.60;;
64986;SDS011;51532;52.108;9.360;2022-09-21T18:40:51;7.70;;;5.22;;
64986;SDS011;51532;52.108;9.360;2022-09-21T18:46:52;7.57;;;5.35;;
64986;SDS011;51532;52.108;9.360;2022-09-21T18:50:14;9.70;;;5.90;;
64986;SDS011;51532;52.108;9.360;2022-09-21T18:55:58;13.68;;;7.32;;
64986;SDS011;51532;52.108;9.360;2022-09-21T18:58:46;10.48;;;7.30;;
64986;SDS011;51532;52.108;9.360;2022-09-21T19:01:35;8.48;;;7.38;;
64986;SDS011;51532;52.108;9.360;2022-09-21T19:04:22;10.70;;;8.10;;
64986;SDS011;51532;52.108;9.360;2022-09-21T19:10:18;18.67;;;11.68;;
64986;SDS011;51532;52.108;9.360;2022-09-21T19:16:23;16.83;;;11.95;;
64986;SDS011;51532;52.108;9.360;2022-09-21T19:22:21;12.68;;;8.88;;
64986;SDS011;51532;52.108;9.360;2022-09-21T19:25:42;13.48;;;8.73;;
64986;SDS011;51532;52.108;9.360;2022-09-21T19:28:44;12.77;;;9.40;;
64986;SDS011;51532;52.108;9.360;2022-09-21T19:31:33;14.77;;;9.30;;
64986;SDS011;51532;52.108;9.360;2022-09-21T19:34:21;12.15;;;9.57;;
64986;SDS011;51532;52.108;9.360;2022-09-21T19:37:09;13.23;;;8.57;;
64986;SDS011;51532;52.108;9.360;2022-09-21T19:39:56;12.88;;;9.52;;
64986;SDS011;51532;52.108;9.360;2022-09-21T19:48:41;12.18;;;6.38;;
64986;SDS011;51532;52.108;9.360;2022-09-21T19:51:50;9.32;;;6.05;;
64986;SDS011;51532;52.108;9.360;2022-09-21T19:54:39;8.85;;;5.20;;
64986;SDS011;51532;52.108;9.360;2022-09-21T19:57:45;8.98;;;5.13;;
64986;SDS011;51532;52.108;9.360;2022-09-21T20:00:51;7.20;;;5.32;;
64986;SDS011;51532;52.108;9.360;2022-09-21T20:03:43;9.07;;;5.60;;
64986;SDS011;51532;52.108;9.360;2022-09-21T20:06:34;7.57;;;5.65;;
64986;SDS011;51532;52.108;9.360;2022-09-21T20:09:37;8.15;;;4.78;;
64986;SDS011;51532;52.108;9.360;2022-09-21T20:12:31;8.93;;;5.15;;
64986;SDS011;51532;52.108;9.360;2022-09-21T20:15:39;7.20;;;5.07;;
64986;SDS011;51532;52.108;9.360;2022-09-21T20:22:08;8.27;;;5.50;;
64986;SDS011;51532;52.108;9.360;2022-09-21T20:27:55;10.13;;;5.78;;
64986;SDS011;51532;52.108;9.360;2022-09-21T20:30:42;11.15;;;6.00;;
64986;SDS011;51532;52.108;9.360;2022-09-21T20:33:30;7.35;;;5.53;;
64986;SDS011;51532;52.108;9.360;2022-09-21T20:36:18;11.68;;;6.65;;
64986;SDS011;51532;52.108;9.360;2022-09-21T20:39:05;10.18;;;6.50;;